createdAt,value
2023-02-14T00:02:14.665Z,26.40
2023-02-14T00:06:06.539Z,28.40
2023-02-14T00:21:37.778Z,27.80
2023-02-14T00:25:19.711Z,31.80
2023-02-14T00:29:08.724Z,27.50
2023-02-14T00:32:57.803Z,28.00
2023-02-14T00:36:47.079Z,30.10
2023-02-14T00:40:35.780Z,26.60
2023-02-14T00:44:24.818Z,26.90
2023-02-14T00:48:13.917Z,28.40
2023-02-14T00:52:04.909Z,27.00
2023-02-14T00:55:53.637Z,26.10
2023-02-14T00:59:42.331Z,28.70
2023-02-14T01:03:31.658Z,27.30
2023-02-14T01:07:20.341Z,27.10
2023-02-14T01:11:09.550Z,25.30
2023-02-14T01:14:57.512Z,27.70
2023-02-14T01:18:46.727Z,24.20
2023-02-14T01:22:35.916Z,26.60
2023-02-14T01:26:25.387Z,25.60
2023-02-14T01:30:14.457Z,25.90
2023-02-14T01:34:03.571Z,26.20
2023-02-14T01:37:52.535Z,23.40
2023-02-14T01:41:44.431Z,27.00
2023-02-14T01:45:39.352Z,25.10
2023-02-14T01:49:28.456Z,25.00
2023-02-14T01:53:18.430Z,22.70
2023-02-14T02:00:54.586Z,22.20
2023-02-14T02:13:09.044Z,25.70
2023-02-14T02:17:05.533Z,23.30
2023-02-14T02:20:55.888Z,26.70
2023-02-14T02:33:05.436Z,27.60
2023-02-14T02:36:53.196Z,27.30
2023-02-14T02:41:03.779Z,27.00
2023-02-14T02:57:07.884Z,28.20
2023-02-14T03:00:57.903Z,30.40
2023-02-14T03:04:45.957Z,29.60
2023-02-14T03:08:35.090Z,31.30
2023-02-14T03:12:24.225Z,33.40
2023-02-14T03:28:28.303Z,30.60
2023-02-14T03:32:32.246Z,28.00
2023-02-14T03:45:03.001Z,27.00
2023-02-14T03:48:50.901Z,24.60
2023-02-14T03:52:38.420Z,22.60
2023-02-14T04:00:29.368Z,22.50
2023-02-14T04:04:08.311Z,22.00
2023-02-14T04:07:57.344Z,21.10
2023-02-14T04:11:46.493Z,20.50
2023-02-14T04:15:36.272Z,20.60
2023-02-14T04:19:44.182Z,22.60
2023-02-14T04:23:33.194Z,22.10
2023-02-14T04:27:32.323Z,20.90
2023-02-14T04:31:21.806Z,21.40
2023-02-14T04:35:11.847Z,22.60
2023-02-14T04:38:59.890Z,24.60
2023-02-14T04:42:50.001Z,23.10
2023-02-14T04:46:39.082Z,23.00
2023-02-14T04:50:28.386Z,22.80
2023-02-14T04:54:17.400Z,23.70
2023-02-14T04:57:08.312Z,25.20
2023-02-14T05:00:37.158Z,25.50
2023-02-14T05:04:26.285Z,26.50
2023-02-14T05:08:15.248Z,23.30
2023-02-14T05:12:05.947Z,27.00
2023-02-14T05:15:54.560Z,27.20
2023-02-14T05:19:38.820Z,29.20
2023-02-14T05:23:27.886Z,28.50
2023-02-14T05:27:17.879Z,27.50
2023-02-14T05:46:45.085Z,31.90
2023-02-14T05:50:34.051Z,30.30
2023-02-14T05:54:11.986Z,29.70
2023-02-14T05:58:01.906Z,33.90
2023-02-14T06:01:30.649Z,33.70
2023-02-14T06:05:08.744Z,33.90
2023-02-14T06:08:21.710Z,33.50
2023-02-14T06:15:57.110Z,34.00
2023-02-14T06:19:46.263Z,33.40
2023-02-14T06:23:36.596Z,37.90
2023-02-14T06:26:50.504Z,43.30
2023-02-14T06:30:24.912Z,45.10
2023-02-14T06:33:56.055Z,38.50
2023-02-14T06:55:05.833Z,43.40
2023-02-14T06:58:54.883Z,42.40
2023-02-14T07:02:35.647Z,42.20
2023-02-14T07:06:17.696Z,41.20
2023-02-14T07:09:37.006Z,38.20
2023-02-14T07:13:06.018Z,37.60
2023-02-14T07:16:55.255Z,51.60
2023-02-14T07:20:45.493Z,59.90
2023-02-14T07:24:14.539Z,54.30
2023-02-14T07:28:03.690Z,53.30
2023-02-14T07:38:10.431Z,47.60
2023-02-14T07:44:42.022Z,51.80
2023-02-14T07:48:02.656Z,54.30
2023-02-14T07:51:26.651Z,55.00
2023-02-14T07:54:55.626Z,51.00
2023-02-14T07:58:29.321Z,51.60
2023-02-14T08:12:42.680Z,38.30
2023-02-14T08:15:55.215Z,36.30
2023-02-14T08:18:42.044Z,37.40
2023-02-14T09:16:23.342Z,25.40
2023-02-14T09:20:12.622Z,28.00
2023-02-14T09:23:24.372Z,26.70
2023-02-14T09:26:56.456Z,26.00
2023-02-14T09:30:38.589Z,23.60
2023-02-14T09:34:28.994Z,26.00
2023-02-14T09:38:11.552Z,26.60
2023-02-14T09:42:09.695Z,21.90
2023-02-14T09:46:21.995Z,25.60
2023-02-14T09:49:19.864Z,25.20
2023-02-14T09:52:03.400Z,23.90
2023-02-14T09:55:14.793Z,22.70
2023-02-14T09:59:09.899Z,21.90
2023-02-14T10:02:55.715Z,21.70
2023-02-14T10:06:42.919Z,21.90
2023-02-14T10:29:46.700Z,26.40
2023-02-14T10:33:39.735Z,25.50
2023-02-14T10:37:24.366Z,26.70
2023-02-14T10:41:24.313Z,25.50
2023-02-14T10:52:20.455Z,26.50
2023-02-14T10:56:19.161Z,48.50
2023-02-14T10:59:52.116Z,25.70
2023-02-14T11:21:37.433Z,18.40
2023-02-14T11:25:26.035Z,17.00
2023-02-14T11:29:14.730Z,16.30
2023-02-14T11:33:04.435Z,17.70
2023-02-14T11:36:18.223Z,17.80
2023-02-14T11:40:04.274Z,18.00
2023-02-14T11:43:16.544Z,18.50
2023-02-14T11:46:53.428Z,18.00
2023-02-14T11:50:00.692Z,18.50
2023-02-14T11:52:56.420Z,17.10
2023-02-14T11:56:02.721Z,15.70
2023-02-14T11:59:37.641Z,17.00
2023-02-14T12:25:38.050Z,20.70
2023-02-14T12:29:27.544Z,19.70
2023-02-14T12:33:16.726Z,18.60
2023-02-14T12:37:06.404Z,16.70
2023-02-14T12:43:55.533Z,17.00
2023-02-14T12:47:23.136Z,16.30
2023-02-14T12:51:01.003Z,15.30
2023-02-14T12:54:48.901Z,14.70
2023-02-14T12:58:38.116Z,13.70
2023-02-14T13:19:19.705Z,5.40
2023-02-14T13:22:33.377Z,5.30
2023-02-14T13:25:50.912Z,4.30
2023-02-14T13:28:59.856Z,5.00
2023-02-14T13:31:43.024Z,4.90
2023-02-14T13:35:04.413Z,5.80
2023-02-14T13:38:51.824Z,8.00
2023-02-14T13:42:14.942Z,9.50
2023-02-14T13:45:32.716Z,8.30
2023-02-14T13:48:17.667Z,10.00
2023-02-14T13:51:40.725Z,10.30
2023-02-14T13:55:48.764Z,10.30
2023-02-14T14:03:31.454Z,9.60
2023-02-14T14:24:27.434Z,15.80
2023-02-14T14:28:16.687Z,16.80
2023-02-14T14:32:06.255Z,15.00
2023-02-14T14:50:43.470Z,15.30
2023-02-14T14:54:28.166Z,14.70
2023-02-14T14:57:28.259Z,14.00
2023-02-14T15:00:45.647Z,13.60
2023-02-14T15:03:22.752Z,13.30
2023-02-14T15:06:54.940Z,14.20
2023-02-14T15:10:16.580Z,13.30
2023-02-14T15:13:48.328Z,12.90
2023-02-14T15:16:34.705Z,13.80
2023-02-14T15:19:32.760Z,16.30
2023-02-14T16:00:05.639Z,25.60
2023-02-14T16:03:45.099Z,23.90
2023-02-14T16:07:34.371Z,23.70
2023-02-14T16:11:23.591Z,23.30
2023-02-14T16:15:21.920Z,22.30
2023-02-14T16:27:43.628Z,22.30
2023-02-14T16:31:34.112Z,22.70
2023-02-14T16:35:14.666Z,21.90
2023-02-14T16:39:02.227Z,22.40
2023-02-14T16:42:49.926Z,21.50
2023-02-14T16:46:27.143Z,28.40
2023-02-14T16:50:14.904Z,29.10
2023-02-14T16:54:02.968Z,27.40
2023-02-14T16:57:52.427Z,27.50
2023-02-14T17:17:12.229Z,97.90
2023-02-14T17:21:01.406Z,117.50
2023-02-14T17:24:51.147Z,111.40
2023-02-14T17:28:40.320Z,115.00
2023-02-14T17:32:29.869Z,103.80
2023-02-14T17:36:19.007Z,74.40
2023-02-14T17:40:08.129Z,72.40
2023-02-14T17:43:58.131Z,81.30
2023-02-14T17:48:26.399Z,83.60
2023-02-14T17:52:14.123Z,74.80
2023-02-14T17:55:54.471Z,82.00
2023-02-14T18:03:09.228Z,67.00
2023-02-14T18:06:56.712Z,92.70
2023-02-14T18:10:44.581Z,115.00
2023-02-14T18:14:35.228Z,104.50
2023-02-14T18:22:17.962Z,85.30
2023-02-14T18:26:07.241Z,92.20
2023-02-14T18:29:56.466Z,84.50
2023-02-14T18:33:45.967Z,98.20
2023-02-14T18:37:36.008Z,103.80
2023-02-14T18:41:25.330Z,97.10
2023-02-14T18:45:14.361Z,92.00
2023-02-14T18:49:03.796Z,84.80
2023-02-14T18:52:53.445Z,100.60
2023-02-14T18:56:45.884Z,83.80
2023-02-14T19:00:34.862Z,89.70
2023-02-14T19:04:23.818Z,93.70
2023-02-14T19:08:13.065Z,73.50
2023-02-14T19:12:02.379Z,71.10
2023-02-14T19:15:55.240Z,64.30
2023-02-14T19:19:37.253Z,68.80
2023-02-14T19:35:07.956Z,79.80
2023-02-14T19:38:57.354Z,98.40
2023-02-14T19:42:47.176Z,92.60
2023-02-14T19:46:37.208Z,101.20
2023-02-14T19:50:26.232Z,96.40
2023-02-14T19:54:16.246Z,85.40
2023-02-14T19:58:04.953Z,79.30
2023-02-14T20:01:56.628Z,86.90
2023-02-14T20:21:31.440Z,62.20
2023-02-14T20:25:19.185Z,66.70
2023-02-14T20:29:06.337Z,72.90
2023-02-14T20:32:53.954Z,77.50
2023-02-14T20:36:43.220Z,85.60
2023-02-14T20:40:32.249Z,95.10
2023-02-14T20:52:22.099Z,88.40
2023-02-14T20:55:46.540Z,83.80
2023-02-14T20:59:29.594Z,74.80
2023-02-14T21:03:13.605Z,75.60
2023-02-14T21:07:29.983Z,118.20
2023-02-14T21:11:17.966Z,96.00
2023-02-14T21:15:07.284Z,100.00
2023-02-14T21:18:56.203Z,91.50
2023-02-14T21:22:45.339Z,88.00
2023-02-14T21:26:35.477Z,102.70
2023-02-14T21:30:24.629Z,131.40
2023-02-14T21:34:16.691Z,99.90
2023-02-14T21:38:05.907Z,110.50
2023-02-14T21:41:57.719Z,81.00
2023-02-14T21:45:45.732Z,128.20
2023-02-14T21:49:33.304Z,86.90
2023-02-14T21:57:19.211Z,163.70
2023-02-14T22:01:08.487Z,96.40
2023-02-14T22:04:57.802Z,98.60
2023-02-14T22:08:46.649Z,92.50
2023-02-14T22:12:35.902Z,87.00
2023-02-14T22:16:24.944Z,80.70
2023-02-14T22:20:14.335Z,75.20
2023-02-14T22:24:03.322Z,75.70
2023-02-14T22:27:51.643Z,71.20
2023-02-14T22:51:15.080Z,30.80
2023-02-14T22:55:04.041Z,27.60
2023-02-14T22:58:53.071Z,26.20
2023-02-14T23:02:42.434Z,26.30
2023-02-14T23:06:38.774Z,28.10
2023-02-14T23:10:27.819Z,28.20
2023-02-14T23:14:16.401Z,30.10
2023-02-14T23:18:03.238Z,32.00
2023-02-14T23:21:49.042Z,36.60
2023-02-14T23:25:38.104Z,39.40
2023-02-14T23:29:26.132Z,40.10
2023-02-14T23:33:55.451Z,44.30
2023-02-14T23:37:44.768Z,39.20
2023-02-14T23:41:32.323Z,38.00
2023-02-14T23:45:21.547Z,38.00
2023-02-14T23:49:10.667Z,36.00
2023-02-14T23:52:59.887Z,36.30
2023-02-14T23:56:48.996Z,33.70
